sensor_id;sensor_type;location;lat;lon;timestamp;P1;durP1;ratioP1;P2;durP2;ratioP2
13147;SDS011;6639;50.956;4.242;2023-12-04T00:00:35;7.10;;;5.30;;
13147;SDS011;6639;50.956;4.242;2023-12-04T00:03:02;8.77;;;5.33;;
13147;SDS011;6639;50.956;4.242;2023-12-04T00:05:29;7.40;;;5.03;;
13147;SDS011;6639;50.956;4.242;2023-12-04T00:07:56;7.60;;;5.50;;
13147;SDS011;6639;50.956;4.242;2023-12-04T00:10:23;6.67;;;5.60;;
13147;SDS011;6639;50.956;4.242;2023-12-04T00:12:51;6.82;;;4.90;;
13147;SDS011;6639;50.956;4.242;2023-12-04T00:15:19;7.60;;;5.38;;
13147;SDS011;6639;50.956;4.242;2023-12-04T00:17:46;7.97;;;5.30;;
13147;SDS011;6639;50.956;4.242;2023-12-04T00:20:13;7.23;;;5.17;;
13147;SDS011;6639;50.956;4.242;2023-12-04T00:22:40;7.47;;;5.23;;
13147;SDS011;6639;50.956;4.242;2023-12-04T00:25:08;7.32;;;5.03;;
13147;SDS011;6639;50.956;4.242;2023-12-04T00:27:34;6.57;;;4.95;;
13147;SDS011;6639;50.956;4.242;2023-12-04T00:30:03;7.05;;;5.68;;
13147;SDS011;6639;50.956;4.242;2023-12-04T00:32:31;7.07;;;5.43;;
13147;SDS011;6639;50.956;4.242;2023-12-04T00:34:58;6.47;;;5.20;;
13147;SDS011;6639;50.956;4.242;2023-12-04T00:37:25;8.13;;;5.82;;
13147;SDS011;6639;50.956;4.242;2023-12-04T00:39:53;6.17;;;4.70;;
13147;SDS011;6639;50.956;4.242;2023-12-04T00:42:20;6.90;;;5.47;;
13147;SDS011;6639;50.956;4.242;2023-12-04T00:44:47;6.73;;;4.80;;
13147;SDS011;6639;50.956;4.242;2023-12-04T00:47:15;6.80;;;5.10;;
13147;SDS011;6639;50.956;4.242;2023-12-04T00:49:42;7.35;;;4.97;;
13147;SDS011;6639;50.956;4.242;2023-12-04T00:52:09;7.40;;;5.50;;
13147;SDS011;6639;50.956;4.242;2023-12-04T00:54:38;7.07;;;4.67;;
13147;SDS011;6639;50.956;4.242;2023-12-04T00:57:05;7.47;;;5.55;;
13147;SDS011;6639;50.956;4.242;2023-12-04T00:59:32;7.10;;;5.17;;
13147;SDS011;6639;50.956;4.242;2023-12-04T01:02:00;6.63;;;5.47;;
13147;SDS011;6639;50.956;4.242;2023-12-04T01:04:28;6.13;;;5.00;;
13147;SDS011;6639;50.956;4.242;2023-12-04T01:06:55;7.13;;;5.33;;
13147;SDS011;6639;50.956;4.242;2023-12-04T01:09:22;7.33;;;5.27;;
13147;SDS011;6639;50.956;4.242;2023-12-04T01:11:49;7.53;;;5.20;;
13147;SDS011;6639;50.956;4.242;2023-12-04T01:14:16;6.30;;;5.03;;
13147;SDS011;6639;50.956;4.242;2023-12-04T01:16:43;6.43;;;5.10;;
13147;SDS011;6639;50.956;4.242;2023-12-04T01:19:10;6.47;;;4.67;;
13147;SDS011;6639;50.956;4.242;2023-12-04T01:21:38;7.57;;;4.93;;
13147;SDS011;6639;50.956;4.242;2023-12-04T01:24:05;7.10;;;5.27;;
13147;SDS011;6639;50.956;4.242;2023-12-04T01:26:32;6.30;;;4.93;;
13147;SDS011;6639;50.956;4.242;2023-12-04T01:28:59;6.03;;;4.68;;
13147;SDS011;6639;50.956;4.242;2023-12-04T01:31:26;7.93;;;5.23;;
13147;SDS011;6639;50.956;4.242;2023-12-04T01:33:53;6.55;;;4.82;;
13147;SDS011;6639;50.956;4.242;2023-12-04T01:36:20;7.93;;;5.15;;
13147;SDS011;6639;50.956;4.242;2023-12-04T01:38:51;6.80;;;5.23;;
13147;SDS011;6639;50.956;4.242;2023-12-04T01:41:17;6.70;;;4.93;;
13147;SDS011;6639;50.956;4.242;2023-12-04T01:43:45;6.43;;;5.10;;
13147;SDS011;6639;50.956;4.242;2023-12-04T01:46:12;6.10;;;4.65;;
13147;SDS011;6639;50.956;4.242;2023-12-04T01:48:42;7.75;;;5.60;;
13147;SDS011;6639;50.956;4.242;2023-12-04T01:51:10;6.80;;;5.00;;
13147;SDS011;6639;50.956;4.242;2023-12-04T01:53:38;6.75;;;5.10;;
13147;SDS011;6639;50.956;4.242;2023-12-04T01:56:08;8.50;;;5.13;;
13147;SDS011;6639;50.956;4.242;2023-12-04T01:58:36;6.40;;;4.72;;
13147;SDS011;6639;50.956;4.242;2023-12-04T02:01:04;8.23;;;5.63;;
13147;SDS011;6639;50.956;4.242;2023-12-04T02:03:31;6.50;;;5.00;;
13147;SDS011;6639;50.956;4.242;2023-12-04T02:05:59;6.45;;;5.15;;
13147;SDS011;6639;50.956;4.242;2023-12-04T02:08:27;7.93;;;4.78;;
13147;SDS011;6639;50.956;4.242;2023-12-04T02:10:55;5.40;;;4.30;;
13147;SDS011;6639;50.956;4.242;2023-12-04T02:13:23;6.33;;;5.10;;
13147;SDS011;6639;50.956;4.242;2023-12-04T02:15:51;5.63;;;4.93;;
13147;SDS011;6639;50.956;4.242;2023-12-04T02:18:20;5.63;;;4.85;;
13147;SDS011;6639;50.956;4.242;2023-12-04T02:20:48;7.45;;;4.13;;
13147;SDS011;6639;50.956;4.242;2023-12-04T02:23:15;7.03;;;4.60;;
13147;SDS011;6639;50.956;4.242;2023-12-04T02:25:43;5.73;;;4.20;;
13147;SDS011;6639;50.956;4.242;2023-12-04T02:28:11;6.10;;;4.30;;
13147;SDS011;6639;50.956;4.242;2023-12-04T02:30:43;5.30;;;3.83;;
13147;SDS011;6639;50.956;4.242;2023-12-04T02:33:11;5.33;;;4.40;;
13147;SDS011;6639;50.956;4.242;2023-12-04T02:35:39;5.83;;;4.33;;
13147;SDS011;6639;50.956;4.242;2023-12-04T02:38:08;5.17;;;3.73;;
13147;SDS011;6639;50.956;4.242;2023-12-04T02:40:35;4.63;;;4.18;;
13147;SDS011;6639;50.956;4.242;2023-12-04T02:43:04;6.50;;;4.28;;
13147;SDS011;6639;50.956;4.242;2023-12-04T02:45:31;5.22;;;3.75;;
13147;SDS011;6639;50.956;4.242;2023-12-04T02:47:58;5.20;;;3.60;;
13147;SDS011;6639;50.956;4.242;2023-12-04T02:50:25;4.43;;;3.90;;
13147;SDS011;6639;50.956;4.242;2023-12-04T02:52:52;5.03;;;4.10;;
13147;SDS011;6639;50.956;4.242;2023-12-04T02:55:19;3.90;;;3.53;;
13147;SDS011;6639;50.956;4.242;2023-12-04T02:57:46;6.63;;;4.10;;
13147;SDS011;6639;50.956;4.242;2023-12-04T03:00:14;6.18;;;4.30;;
13147;SDS011;6639;50.956;4.242;2023-12-04T03:02:41;5.75;;;4.45;;
13147;SDS011;6639;50.956;4.242;2023-12-04T03:05:08;5.97;;;4.23;;
13147;SDS011;6639;50.956;4.242;2023-12-04T03:07:35;4.40;;;3.90;;
13147;SDS011;6639;50.956;4.242;2023-12-04T03:10:02;6.85;;;4.43;;
13147;SDS011;6639;50.956;4.242;2023-12-04T03:12:30;5.90;;;4.23;;
13147;SDS011;6639;50.956;4.242;2023-12-04T03:14:57;6.90;;;4.57;;
13147;SDS011;6639;50.956;4.242;2023-12-04T03:17:26;4.77;;;3.90;;
13147;SDS011;6639;50.956;4.242;2023-12-04T03:19:53;5.23;;;4.00;;
13147;SDS011;6639;50.956;4.242;2023-12-04T03:22:20;6.00;;;4.33;;
13147;SDS011;6639;50.956;4.242;2023-12-04T03:24:46;5.97;;;4.33;;
13147;SDS011;6639;50.956;4.242;2023-12-04T03:27:13;4.45;;;3.30;;
13147;SDS011;6639;50.956;4.242;2023-12-04T03:29:40;5.07;;;3.87;;
13147;SDS011;6639;50.956;4.242;2023-12-04T03:32:07;5.23;;;3.90;;
13147;SDS011;6639;50.956;4.242;2023-12-04T03:34:35;5.90;;;4.25;;
13147;SDS011;6639;50.956;4.242;2023-12-04T03:37:02;4.73;;;3.70;;
13147;SDS011;6639;50.956;4.242;2023-12-04T03:39:29;4.22;;;3.67;;
13147;SDS011;6639;50.956;4.242;2023-12-04T03:41:56;5.22;;;3.65;;
13147;SDS011;6639;50.956;4.242;2023-12-04T03:44:23;3.93;;;3.50;;
13147;SDS011;6639;50.956;4.242;2023-12-04T03:46:51;4.88;;;3.85;;
13147;SDS011;6639;50.956;4.242;2023-12-04T03:49:18;4.75;;;3.88;;
13147;SDS011;6639;50.956;4.242;2023-12-04T03:51:46;4.72;;;3.70;;
13147;SDS011;6639;50.956;4.242;2023-12-04T03:54:13;4.43;;;3.65;;
13147;SDS011;6639;50.956;4.242;2023-12-04T03:56:40;4.80;;;3.50;;
13147;SDS011;6639;50.956;4.242;2023-12-04T03:59:08;4.63;;;3.80;;
13147;SDS011;6639;50.956;4.242;2023-12-04T04:01:35;4.15;;;3.47;;
13147;SDS011;6639;50.956;4.242;2023-12-04T04:04:02;3.38;;;3.05;;
13147;SDS011;6639;50.956;4.242;2023-12-04T04:06:29;4.63;;;3.40;;
13147;SDS011;6639;50.956;4.242;2023-12-04T04:08:58;4.15;;;3.42;;
13147;SDS011;6639;50.956;4.242;2023-12-04T04:11:25;4.22;;;3.10;;
13147;SDS011;6639;50.956;4.242;2023-12-04T04:13:52;5.15;;;3.58;;
13147;SDS011;6639;50.956;4.242;2023-12-04T04:16:19;4.03;;;3.53;;
13147;SDS011;6639;50.956;4.242;2023-12-04T04:18:46;3.60;;;3.25;;
13147;SDS011;6639;50.956;4.242;2023-12-04T04:21:14;4.65;;;3.22;;
13147;SDS011;6639;50.956;4.242;2023-12-04T04:23:42;3.70;;;3.35;;
13147;SDS011;6639;50.956;4.242;2023-12-04T04:26:10;4.72;;;3.47;;
13147;SDS011;6639;50.956;4.242;2023-12-04T04:28:37;3.20;;;2.55;;
13147;SDS011;6639;50.956;4.242;2023-12-04T04:31:04;3.47;;;3.17;;
13147;SDS011;6639;50.956;4.242;2023-12-04T04:33:31;4.18;;;3.50;;
13147;SDS011;6639;50.956;4.242;2023-12-04T04:35:58;4.53;;;3.72;;
13147;SDS011;6639;50.956;4.242;2023-12-04T04:38:25;4.90;;;3.85;;
13147;SDS011;6639;50.956;4.242;2023-12-04T04:40:53;5.00;;;3.88;;
13147;SDS011;6639;50.956;4.242;2023-12-04T04:43:21;3.90;;;3.35;;
13147;SDS011;6639;50.956;4.242;2023-12-04T04:45:48;5.72;;;4.18;;
13147;SDS011;6639;50.956;4.242;2023-12-04T04:48:16;4.90;;;3.72;;
13147;SDS011;6639;50.956;4.242;2023-12-04T04:50:42;4.45;;;3.70;;
13147;SDS011;6639;50.956;4.242;2023-12-04T04:53:09;4.85;;;3.88;;
13147;SDS011;6639;50.956;4.242;2023-12-04T04:55:36;4.27;;;3.60;;
13147;SDS011;6639;50.956;4.242;2023-12-04T04:58:03;5.18;;;3.80;;
13147;SDS011;6639;50.956;4.242;2023-12-04T05:00:32;5.20;;;3.95;;
13147;SDS011;6639;50.956;4.242;2023-12-04T05:02:59;4.40;;;3.42;;
13147;SDS011;6639;50.956;4.242;2023-12-04T05:05:25;5.27;;;3.80;;
13147;SDS011;6639;50.956;4.242;2023-12-04T05:07:52;4.67;;;3.87;;
13147;SDS011;6639;50.956;4.242;2023-12-04T05:10:19;4.33;;;3.37;;
13147;SDS011;6639;50.956;4.242;2023-12-04T05:12:46;4.78;;;3.70;;
13147;SDS011;6639;50.956;4.242;2023-12-04T05:15:13;4.97;;;4.05;;
13147;SDS011;6639;50.956;4.242;2023-12-04T05:17:42;3.93;;;3.53;;
13147;SDS011;6639;50.956;4.242;2023-12-04T05:20:09;4.97;;;3.50;;
13147;SDS011;6639;50.956;4.242;2023-12-04T05:22:36;3.83;;;3.28;;
13147;SDS011;6639;50.956;4.242;2023-12-04T05:25:05;4.75;;;3.38;;
13147;SDS011;6639;50.956;4.242;2023-12-04T05:27:33;4.22;;;3.10;;
13147;SDS011;6639;50.956;4.242;2023-12-04T05:30:00;4.30;;;2.70;;
13147;SDS011;6639;50.956;4.242;2023-12-04T05:32:27;3.95;;;3.55;;
13147;SDS011;6639;50.956;4.242;2023-12-04T05:34:55;3.70;;;3.15;;
13147;SDS011;6639;50.956;4.242;2023-12-04T05:37:23;3.92;;;3.03;;
13147;SDS011;6639;50.956;4.242;2023-12-04T05:39:49;3.60;;;3.22;;
13147;SDS011;6639;50.956;4.242;2023-12-04T05:42:17;4.22;;;3.25;;
13147;SDS011;6639;50.956;4.242;2023-12-04T05:44:44;4.90;;;3.67;;
13147;SDS011;6639;50.956;4.242;2023-12-04T05:47:13;3.30;;;2.90;;
13147;SDS011;6639;50.956;4.242;2023-12-04T05:49:40;3.90;;;3.22;;
13147;SDS011;6639;50.956;4.242;2023-12-04T05:52:08;3.47;;;3.08;;
13147;SDS011;6639;50.956;4.242;2023-12-04T05:54:38;4.28;;;3.00;;
13147;SDS011;6639;50.956;4.242;2023-12-04T05:57:05;3.80;;;3.25;;
13147;SDS011;6639;50.956;4.242;2023-12-04T05:59:32;3.30;;;3.00;;
13147;SDS011;6639;50.956;4.242;2023-12-04T06:01:59;3.85;;;3.13;;
13147;SDS011;6639;50.956;4.242;2023-12-04T06:04:26;3.40;;;2.92;;
13147;SDS011;6639;50.956;4.242;2023-12-04T06:06:53;3.75;;;3.15;;
13147;SDS011;6639;50.956;4.242;2023-12-04T06:09:21;2.90;;;2.60;;
13147;SDS011;6639;50.956;4.242;2023-12-04T06:11:48;3.13;;;2.72;;
13147;SDS011;6639;50.956;4.242;2023-12-04T06:14:15;4.05;;;2.72;;
13147;SDS011;6639;50.956;4.242;2023-12-04T06:16:42;3.05;;;2.70;;
13147;SDS011;6639;50.956;4.242;2023-12-04T06:19:08;3.47;;;3.17;;
13147;SDS011;6639;50.956;4.242;2023-12-04T06:21:35;3.63;;;2.78;;
13147;SDS011;6639;50.956;4.242;2023-12-04T06:24:03;3.55;;;2.70;;
13147;SDS011;6639;50.956;4.242;2023-12-04T06:26:32;3.35;;;3.05;;
13147;SDS011;6639;50.956;4.242;2023-12-04T06:29:02;3.03;;;2.72;;
13147;SDS011;6639;50.956;4.242;2023-12-04T06:31:29;4.57;;;3.10;;
13147;SDS011;6639;50.956;4.242;2023-12-04T06:33:57;3.33;;;3.03;;
13147;SDS011;6639;50.956;4.242;2023-12-04T06:36:24;3.75;;;2.67;;
13147;SDS011;6639;50.956;4.242;2023-12-04T06:38:56;3.92;;;2.78;;
13147;SDS011;6639;50.956;4.242;2023-12-04T06:41:25;3.88;;;2.63;;
13147;SDS011;6639;50.956;4.242;2023-12-04T06:43:53;3.43;;;3.10;;
13147;SDS011;6639;50.956;4.242;2023-12-04T06:46:22;3.25;;;2.67;;
13147;SDS011;6639;50.956;4.242;2023-12-04T06:48:52;5.38;;;3.40;;
13147;SDS011;6639;50.956;4.242;2023-12-04T06:51:23;4.28;;;3.35;;
13147;SDS011;6639;50.956;4.242;2023-12-04T06:53:51;5.20;;;3.77;;
13147;SDS011;6639;50.956;4.242;2023-12-04T06:56:18;3.50;;;3.20;;
13147;SDS011;6639;50.956;4.242;2023-12-04T06:58:45;4.25;;;3.40;;
13147;SDS011;6639;50.956;4.242;2023-12-04T07:01:13;3.80;;;3.50;;
13147;SDS011;6639;50.956;4.242;2023-12-04T07:03:40;3.40;;;2.90;;
13147;SDS011;6639;50.956;4.242;2023-12-04T07:06:07;4.07;;;3.38;;
13147;SDS011;6639;50.956;4.242;2023-12-04T07:08:34;3.42;;;3.13;;
13147;SDS011;6639;50.956;4.242;2023-12-04T07:11:03;3.83;;;3.40;;
13147;SDS011;6639;50.956;4.242;2023-12-04T07:13:32;3.75;;;3.45;;
13147;SDS011;6639;50.956;4.242;2023-12-04T07:15:59;4.83;;;3.83;;
13147;SDS011;6639;50.956;4.242;2023-12-04T07:18:28;3.90;;;3.15;;
13147;SDS011;6639;50.956;4.242;2023-12-04T07:20:54;4.50;;;4.10;;
13147;SDS011;6639;50.956;4.242;2023-12-04T07:23:22;3.88;;;3.17;;
13147;SDS011;6639;50.956;4.242;2023-12-04T07:25:48;4.45;;;3.78;;
13147;SDS011;6639;50.956;4.242;2023-12-04T07:28:16;6.30;;;4.20;;
13147;SDS011;6639;50.956;4.242;2023-12-04T07:30:43;5.15;;;3.65;;
13147;SDS011;6639;50.956;4.242;2023-12-04T07:33:11;4.63;;;3.78;;
13147;SDS011;6639;50.956;4.242;2023-12-04T07:35:39;5.97;;;3.72;;
13147;SDS011;6639;50.956;4.242;2023-12-04T07:38:06;3.53;;;3.22;;
13147;SDS011;6639;50.956;4.242;2023-12-04T07:40:33;4.85;;;3.58;;
13147;SDS011;6639;50.956;4.242;2023-12-04T07:43:00;4.93;;;3.90;;
13147;SDS011;6639;50.956;4.242;2023-12-04T07:45:27;4.10;;;3.47;;
13147;SDS011;6639;50.956;4.242;2023-12-04T07:47:55;4.78;;;3.60;;
13147;SDS011;6639;50.956;4.242;2023-12-04T07:50:22;3.97;;;3.58;;
13147;SDS011;6639;50.956;4.242;2023-12-04T07:52:53;4.28;;;3.88;;
13147;SDS011;6639;50.956;4.242;2023-12-04T07:55:20;4.22;;;3.83;;
13147;SDS011;6639;50.956;4.242;2023-12-04T07:57:47;4.55;;;3.65;;
13147;SDS011;6639;50.956;4.242;2023-12-04T08:00:16;4.28;;;3.88;;
13147;SDS011;6639;50.956;4.242;2023-12-04T08:02:44;4.38;;;3.95;;
13147;SDS011;6639;50.956;4.242;2023-12-04T08:05:11;4.13;;;3.58;;
13147;SDS011;6639;50.956;4.242;2023-12-04T08:07:38;5.72;;;4.22;;
13147;SDS011;6639;50.956;4.242;2023-12-04T08:10:07;4.47;;;4.07;;
13147;SDS011;6639;50.956;4.242;2023-12-04T08:12:36;4.20;;;3.47;;
13147;SDS011;6639;50.956;4.242;2023-12-04T08:15:03;4.88;;;3.83;;
13147;SDS011;6639;50.956;4.242;2023-12-04T08:17:31;7.05;;;4.28;;
13147;SDS011;6639;50.956;4.242;2023-12-04T08:19:57;4.60;;;3.85;;
13147;SDS011;6639;50.956;4.242;2023-12-04T08:22:26;3.88;;;3.47;;
13147;SDS011;6639;50.956;4.242;2023-12-04T08:24:52;3.88;;;3.47;;
13147;SDS011;6639;50.956;4.242;2023-12-04T08:27:21;4.28;;;3.45;;
13147;SDS011;6639;50.956;4.242;2023-12-04T08:29:48;5.00;;;3.72;;
13147;SDS011;6639;50.956;4.242;2023-12-04T08:32:15;7.47;;;3.83;;
13147;SDS011;6639;50.956;4.242;2023-12-04T08:34:41;5.90;;;3.88;;
13147;SDS011;6639;50.956;4.242;2023-12-04T08:37:09;4.88;;;4.38;;
13147;SDS011;6639;50.956;4.242;2023-12-04T08:39:36;5.05;;;4.38;;
13147;SDS011;6639;50.956;4.242;2023-12-04T08:42:03;3.92;;;3.53;;
13147;SDS011;6639;50.956;4.242;2023-12-04T08:44:33;5.25;;;3.92;;
13147;SDS011;6639;50.956;4.242;2023-12-04T08:47:00;4.65;;;3.83;;
13147;SDS011;6639;50.956;4.242;2023-12-04T08:49:27;5.38;;;4.10;;
13147;SDS011;6639;50.956;4.242;2023-12-04T08:51:54;4.97;;;3.97;;
13147;SDS011;6639;50.956;4.242;2023-12-04T08:54:21;4.18;;;3.60;;
13147;SDS011;6639;50.956;4.242;2023-12-04T08:56:48;4.40;;;4.00;;
13147;SDS011;6639;50.956;4.242;2023-12-04T08:59:15;6.13;;;4.05;;
13147;SDS011;6639;50.956;4.242;2023-12-04T09:01:43;4.60;;;4.18;;
13147;SDS011;6639;50.956;4.242;2023-12-04T09:04:10;4.88;;;4.13;;
13147;SDS011;6639;50.956;4.242;2023-12-04T09:06:37;5.63;;;4.18;;
13147;SDS011;6639;50.956;4.242;2023-12-04T09:09:04;3.67;;;3.38;;
13147;SDS011;6639;50.956;4.242;2023-12-04T09:11:31;7.25;;;4.43;;
13147;SDS011;6639;50.956;4.242;2023-12-04T09:13:58;5.30;;;3.95;;
13147;SDS011;6639;50.956;4.242;2023-12-04T09:16:25;5.45;;;4.28;;
13147;SDS011;6639;50.956;4.242;2023-12-04T09:18:53;5.20;;;3.65;;
13147;SDS011;6639;50.956;4.242;2023-12-04T09:21:20;5.18;;;3.75;;
13147;SDS011;6639;50.956;4.242;2023-12-04T09:23:47;4.20;;;3.80;;
13147;SDS011;6639;50.956;4.242;2023-12-04T09:26:15;4.03;;;3.53;;
13147;SDS011;6639;50.956;4.242;2023-12-04T09:28:42;4.45;;;4.05;;
13147;SDS011;6639;50.956;4.242;2023-12-04T09:31:09;5.68;;;4.18;;
13147;SDS011;6639;50.956;4.242;2023-12-04T09:33:36;5.05;;;4.10;;
13147;SDS011;6639;50.956;4.242;2023-12-04T09:36:07;4.60;;;4.07;;
13147;SDS011;6639;50.956;4.242;2023-12-04T09:38:34;5.25;;;4.18;;
13147;SDS011;6639;50.956;4.242;2023-12-04T09:41:01;6.20;;;4.90;;
13147;SDS011;6639;50.956;4.242;2023-12-04T09:43:29;4.90;;;4.40;;
13147;SDS011;6639;50.956;4.242;2023-12-04T09:45:58;5.35;;;4.32;;
13147;SDS011;6639;50.956;4.242;2023-12-04T09:48:26;5.05;;;3.97;;
13147;SDS011;6639;50.956;4.242;2023-12-04T09:50:53;5.10;;;4.47;;
13147;SDS011;6639;50.956;4.242;2023-12-04T09:53:22;4.55;;;4.10;;
13147;SDS011;6639;50.956;4.242;2023-12-04T09:55:52;7.45;;;4.80;;
13147;SDS011;6639;50.956;4.242;2023-12-04T09:58:22;4.40;;;4.00;;
13147;SDS011;6639;50.956;4.242;2023-12-04T10:00:53;5.20;;;4.70;;
13147;SDS011;6639;50.956;4.242;2023-12-04T10:03:21;5.00;;;4.15;;
13147;SDS011;6639;50.956;4.242;2023-12-04T10:05:48;4.88;;;4.05;;
13147;SDS011;6639;50.956;4.242;2023-12-04T10:08:15;5.20;;;4.35;;
13147;SDS011;6639;50.956;4.242;2023-12-04T10:10:44;5.40;;;4.45;;
13147;SDS011;6639;50.956;4.242;2023-12-04T10:13:11;6.03;;;4.22;;
13147;SDS011;6639;50.956;4.242;2023-12-04T10:15:46;4.60;;;4.20;;
13147;SDS011;6639;50.956;4.242;2023-12-04T10:18:23;5.75;;;4.30;;
13147;SDS011;6639;50.956;4.242;2023-12-04T10:20:52;5.60;;;4.40;;
13147;SDS011;6639;50.956;4.242;2023-12-04T10:23:21;6.68;;;4.72;;
13147;SDS011;6639;50.956;4.242;2023-12-04T10:25:51;5.97;;;4.82;;
13147;SDS011;6639;50.956;4.242;2023-12-04T10:28:19;6.88;;;5.10;;
13147;SDS011;6639;50.956;4.242;2023-12-04T10:30:45;8.07;;;5.63;;
13147;SDS011;6639;50.956;4.242;2023-12-04T10:33:12;6.80;;;5.45;;
13147;SDS011;6639;50.956;4.242;2023-12-04T10:35:40;6.77;;;5.60;;
13147;SDS011;6639;50.956;4.242;2023-12-04T10:38:08;5.05;;;4.38;;
13147;SDS011;6639;50.956;4.242;2023-12-04T10:40:36;6.30;;;5.45;;
13147;SDS011;6639;50.956;4.242;2023-12-04T10:43:11;5.53;;;4.75;;
13147;SDS011;6639;50.956;4.242;2023-12-04T10:45:42;6.95;;;5.28;;
13147;SDS011;6639;50.956;4.242;2023-12-04T10:48:10;5.78;;;4.45;;
13147;SDS011;6639;50.956;4.242;2023-12-04T10:50:38;6.43;;;5.37;;
13147;SDS011;6639;50.956;4.242;2023-12-04T10:53:06;7.27;;;5.47;;
13147;SDS011;6639;50.956;4.242;2023-12-04T10:55:34;7.82;;;5.43;;
13147;SDS011;6639;50.956;4.242;2023-12-04T10:58:02;8.27;;;5.53;;
13147;SDS011;6639;50.956;4.242;2023-12-04T11:00:34;8.05;;;5.90;;
13147;SDS011;6639;50.956;4.242;2023-12-04T11:03:04;7.35;;;5.50;;
13147;SDS011;6639;50.956;4.242;2023-12-04T11:05:35;6.18;;;5.57;;
13147;SDS011;6639;50.956;4.242;2023-12-04T11:08:04;5.50;;;4.90;;
13147;SDS011;6639;50.956;4.242;2023-12-04T11:10:33;5.57;;;5.00;;
13147;SDS011;6639;50.956;4.242;2023-12-04T11:13:02;7.70;;;4.68;;
13147;SDS011;6639;50.956;4.242;2023-12-04T11:15:38;6.00;;;4.87;;
13147;SDS011;6639;50.956;4.242;2023-12-04T11:18:07;5.63;;;4.90;;
13147;SDS011;6639;50.956;4.242;2023-12-04T11:20:36;6.35;;;4.70;;
13147;SDS011;6639;50.956;4.242;2023-12-04T11:23:09;5.97;;;5.40;;
13147;SDS011;6639;50.956;4.242;2023-12-04T11:25:36;5.30;;;4.28;;
13147;SDS011;6639;50.956;4.242;2023-12-04T11:28:04;7.40;;;5.60;;
13147;SDS011;6639;50.956;4.242;2023-12-04T11:30:32;7.63;;;5.18;;
13147;SDS011;6639;50.956;4.242;2023-12-04T11:33:01;6.63;;;4.97;;
13147;SDS011;6639;50.956;4.242;2023-12-04T11:35:28;6.53;;;5.40;;
13147;SDS011;6639;50.956;4.242;2023-12-04T11:37:55;6.88;;;5.20;;
13147;SDS011;6639;50.956;4.242;2023-12-04T11:40:23;6.73;;;5.10;;
13147;SDS011;6639;50.956;4.242;2023-12-04T11:42:51;5.13;;;4.53;;
13147;SDS011;6639;50.956;4.242;2023-12-04T11:45:18;5.70;;;4.85;;
13147;SDS011;6639;50.956;4.242;2023-12-04T11:47:50;5.80;;;5.10;;
13147;SDS011;6639;50.956;4.242;2023-12-04T11:50:19;8.65;;;5.75;;
13147;SDS011;6639;50.956;4.242;2023-12-04T11:52:47;5.38;;;4.43;;
13147;SDS011;6639;50.956;4.242;2023-12-04T11:55:17;7.28;;;5.03;;
13147;SDS011;6639;50.956;4.242;2023-12-04T11:57:48;5.50;;;4.85;;
13147;SDS011;6639;50.956;4.242;2023-12-04T12:00:20;5.05;;;4.55;;
13147;SDS011;6639;50.956;4.242;2023-12-04T12:05:35;4.07;;;3.65;;
13147;SDS011;6639;50.956;4.242;2023-12-04T12:08:04;6.25;;;4.13;;
13147;SDS011;6639;50.956;4.242;2023-12-04T12:10:32;5.43;;;4.63;;
13147;SDS011;6639;50.956;4.242;2023-12-04T12:13:00;4.40;;;3.97;;
13147;SDS011;6639;50.956;4.242;2023-12-04T12:15:27;4.72;;;4.22;;
13147;SDS011;6639;50.956;4.242;2023-12-04T12:17:55;5.40;;;4.38;;
13147;SDS011;6639;50.956;4.242;2023-12-04T12:20:21;4.50;;;4.10;;
13147;SDS011;6639;50.956;4.242;2023-12-04T12:22:49;4.65;;;4.10;;
13147;SDS011;6639;50.956;4.242;2023-12-04T12:25:17;6.85;;;4.25;;
13147;SDS011;6639;50.956;4.242;2023-12-04T12:27:44;5.47;;;4.25;;
13147;SDS011;6639;50.956;4.242;2023-12-04T12:30:12;4.85;;;4.35;;
13147;SDS011;6639;50.956;4.242;2023-12-04T12:32:40;5.45;;;4.32;;
13147;SDS011;6639;50.956;4.242;2023-12-04T12:35:07;5.38;;;4.85;;
13147;SDS011;6639;50.956;4.242;2023-12-04T12:37:35;5.28;;;4.78;;
13147;SDS011;6639;50.956;4.242;2023-12-04T12:40:07;6.50;;;4.30;;
13147;SDS011;6639;50.956;4.242;2023-12-04T12:42:37;4.88;;;4.30;;
13147;SDS011;6639;50.956;4.242;2023-12-04T12:45:07;5.20;;;4.60;;
13147;SDS011;6639;50.956;4.242;2023-12-04T12:47:36;4.22;;;3.72;;
13147;SDS011;6639;50.956;4.242;2023-12-04T12:50:04;7.03;;;4.63;;
13147;SDS011;6639;50.956;4.242;2023-12-04T12:52:36;4.93;;;4.30;;
13147;SDS011;6639;50.956;4.242;2023-12-04T12:55:03;4.03;;;3.63;;
13147;SDS011;6639;50.956;4.242;2023-12-04T12:57:32;5.63;;;4.05;;
13147;SDS011;6639;50.956;4.242;2023-12-04T12:59:59;5.47;;;4.80;;
13147;SDS011;6639;50.956;4.242;2023-12-04T13:02:27;5.07;;;4.53;;
13147;SDS011;6639;50.956;4.242;2023-12-04T13:04:53;4.53;;;4.13;;
13147;SDS011;6639;50.956;4.242;2023-12-04T13:07:22;5.65;;;4.65;;
13147;SDS011;6639;50.956;4.242;2023-12-04T13:09:49;5.05;;;4.45;;
13147;SDS011;6639;50.956;4.242;2023-12-04T13:12:17;4.63;;;4.22;;
13147;SDS011;6639;50.956;4.242;2023-12-04T13:14:45;5.50;;;3.80;;
13147;SDS011;6639;50.956;4.242;2023-12-04T13:17:12;4.88;;;3.75;;
13147;SDS011;6639;50.956;4.242;2023-12-04T13:19:39;5.72;;;4.50;;
13147;SDS011;6639;50.956;4.242;2023-12-04T13:22:06;4.75;;;4.28;;
13147;SDS011;6639;50.956;4.242;2023-12-04T13:24:33;4.28;;;3.85;;
13147;SDS011;6639;50.956;4.242;2023-12-04T13:26:59;4.97;;;3.63;;
13147;SDS011;6639;50.956;4.242;2023-12-04T13:29:26;6.15;;;3.72;;
13147;SDS011;6639;50.956;4.242;2023-12-04T13:31:55;4.45;;;4.05;;
13147;SDS011;6639;50.956;4.242;2023-12-04T13:34:22;4.57;;;3.58;;
13147;SDS011;6639;50.956;4.242;2023-12-04T13:36:49;5.13;;;3.75;;
13147;SDS011;6639;50.956;4.242;2023-12-04T13:39:15;8.35;;;4.03;;
13147;SDS011;6639;50.956;4.242;2023-12-04T13:41:47;4.50;;;3.95;;
13147;SDS011;6639;50.956;4.242;2023-12-04T13:44:31;7.30;;;4.40;;
13147;SDS011;6639;50.956;4.242;2023-12-04T13:47:00;5.57;;;4.10;;
13147;SDS011;6639;50.956;4.242;2023-12-04T13:49:27;4.68;;;4.22;;
13147;SDS011;6639;50.956;4.242;2023-12-04T13:51:54;4.18;;;3.78;;
13147;SDS011;6639;50.956;4.242;2023-12-04T13:54:21;4.63;;;3.92;;
13147;SDS011;6639;50.956;4.242;2023-12-04T13:56:59;4.32;;;3.40;;
13147;SDS011;6639;50.956;4.242;2023-12-04T13:59:28;3.75;;;3.42;;
13147;SDS011;6639;50.956;4.242;2023-12-04T14:01:57;3.40;;;3.10;;
13147;SDS011;6639;50.956;4.242;2023-12-04T14:04:29;4.15;;;3.75;;
13147;SDS011;6639;50.956;4.242;2023-12-04T14:06:56;4.30;;;3.80;;
13147;SDS011;6639;50.956;4.242;2023-12-04T14:09:23;4.15;;;3.75;;
13147;SDS011;6639;50.956;4.242;2023-12-04T14:11:50;4.25;;;3.85;;
13147;SDS011;6639;50.956;4.242;2023-12-04T14:14:17;5.45;;;3.75;;
13147;SDS011;6639;50.956;4.242;2023-12-04T14:16:44;4.55;;;4.15;;
13147;SDS011;6639;50.956;4.242;2023-12-04T14:19:13;3.83;;;3.42;;
13147;SDS011;6639;50.956;4.242;2023-12-04T14:21:42;4.05;;;3.65;;
13147;SDS011;6639;50.956;4.242;2023-12-04T14:24:09;4.75;;;3.85;;
13147;SDS011;6639;50.956;4.242;2023-12-04T14:26:36;4.35;;;3.25;;
13147;SDS011;6639;50.956;4.242;2023-12-04T14:29:03;3.95;;;3.55;;
13147;SDS011;6639;50.956;4.242;2023-12-04T14:31:32;4.20;;;3.80;;
13147;SDS011;6639;50.956;4.242;2023-12-04T14:34:00;4.25;;;3.85;;
13147;SDS011;6639;50.956;4.242;2023-12-04T14:36:29;4.50;;;4.10;;
13147;SDS011;6639;50.956;4.242;2023-12-04T14:38:57;4.32;;;3.95;;
13147;SDS011;6639;50.956;4.242;2023-12-04T14:41:24;4.68;;;4.28;;
13147;SDS011;6639;50.956;4.242;2023-12-04T14:43:51;3.72;;;3.42;;
13147;SDS011;6639;50.956;4.242;2023-12-04T14:46:19;6.15;;;3.80;;
13147;SDS011;6639;50.956;4.242;2023-12-04T14:48:45;4.15;;;3.53;;
13147;SDS011;6639;50.956;4.242;2023-12-04T14:51:12;5.25;;;3.92;;
13147;SDS011;6639;50.956;4.242;2023-12-04T14:53:41;4.13;;;3.80;;
13147;SDS011;6639;50.956;4.242;2023-12-04T14:56:14;3.97;;;3.65;;
13147;SDS011;6639;50.956;4.242;2023-12-04T14:58:49;4.93;;;4.18;;
13147;SDS011;6639;50.956;4.242;2023-12-04T15:01:32;4.82;;;3.72;;
13147;SDS011;6639;50.956;4.242;2023-12-04T15:04:16;4.35;;;3.95;;
13147;SDS011;6639;50.956;4.242;2023-12-04T15:06:56;4.13;;;3.75;;